Dania, FL (33004)

11:52 AM EDT on August 31, 2015 (GMT -0400)
Rio Blanco Canal ( K4ROX ) | | Change Station
CLOSE
Current Station
Personal Weather Station
Location: Hollywood, FL
Elevation: 16 ft
Nearby Weather Stations

Elev 16 ft 26.03 °N, 80.16 °W | Updated 4 seconds ago

Mostly Cloudy
Mostly Cloudy
92.8 °F
Feels Like 105 °F
N
4.0
Wind Variable Wind from SSE
Gusts 10.7 mph

Today
High -- | Low -- °F
--% Chance of Precip.
Yesterday
High -- | Low -- °F
Precip. -- in
7:00 AM 7:41 PM
Waning Gibbous, 95% visible
Pressure 30.05 in
Visibility 10.0 miles
Clouds Mostly Cloudy 2300 ft
Mostly Cloudy 25000 ft
Heat Index 105 °F
Dew Point 76 °F
Humidity 58%
Rainfall 0.30 in
Snow Depth Not available.
UV 0.0 out of 12
Pollen 3.30 out of 12
Air Quality Not available.
Flu Activity Not available.
METAR KFLL 311453Z 14015G21KT 10SM BKN023 BKN250 30/24 A3005 RMK AO2 SLP174 T03000244 53012 $
Pressure 30.05 in
Visibility 10.0 miles
Clouds Mostly Cloudy 2300 ft
Mostly Cloudy 25000 ft
Heat Index 105 °F
Dew Point 76 °F
Humidity 58%
Rainfall 0.30 in
Snow Depth Not available.
UV 0.0 out of 12
Pollen 3.30 out of 12
Air Quality Not available.
Flu Activity Not available.
METAR KFLL 311453Z 14015G21KT 10SM BKN023 BKN250 30/24 A3005 RMK AO2 SLP174 T03000244 53012 $

10-Day Weather Forecast

×

Almanac

Astronomy

Aug. 31, 2015 Rise Set
Actual Time
Civil Twilight
Nautical Twilight
Astronomical Twilight
Moon
Length of Visible Light
Length of Day
Tomorrow will be .
, % of the Moon is Illuminated

Today's Extremes

State Highs State Lows

Community

WunderPhotos

Upload Photos

1,851,282 photos uploaded!

WunderBlogs® & News

Nearby

Air Quality

  Air Quality AQ Index Pollutant
Not available.

Snow Depth

Station Depth Elevation

Earthquake Activity

City Distance Mag. Time & Date
Minimum magnitude displayed is 2.5.

Coastal Water Temperatures

Place Temperature

Stations

Nearby Weather Stations

Station Location Temp. Windchill Dew Point Humidity Wind Precip. Elev Updated Type